Time;durP1;ratioP1;P1;durP2;ratioP2;P2;SDS_P1;SDS_P2;PMS_P1;PMS_P2;Temp;Humidity;BMP_temperature;BMP_pressure;BME280_temperature;BME280_humidity;BME280_pressure;Samples;Min_cycle;Max_cycle;Signal;HPM_P1;HPM_P2
2022/01/31 00:01:17;;;;;;;;;;;19.00;28.60;;;;;;489740;242;1143;-78
2022/01/31 00:03:18;;;;;;;;;;;18.90;28.70;;;;;;489656;242;1804;-78
2022/01/31 00:05:20;;;;;;;;;;;18.90;28.70;;;;;;489717;242;966;-78
2022/01/31 00:07:21;;;;;;;;;;;18.90;28.70;;;;;;489670;242;1104;-78
2022/01/31 00:09:23;;;;;;;;;;;18.90;28.70;;;;;;489746;242;1121;-78
2022/01/31 00:11:23;;;;;;;;;;;18.90;28.70;;;;;;489639;242;1524;-79
2022/01/31 00:13:32;;;;;;;;;;;18.90;28.70;;;;;;489755;242;1125;-78
2022/01/31 00:15:26;;;;;;;;;;;18.90;28.70;;;;;;489873;242;2134;-78
2022/01/31 00:17:27;;;;;;;;;;;19.10;28.60;;;;;;489605;242;1051;-79
2022/01/31 00:19:29;;;;;;;;;;;19.10;28.60;;;;;;489793;242;1188;-78
2022/01/31 00:21:30;;;;;;;;;;;19.10;28.60;;;;;;489593;242;1182;-79
2022/01/31 00:23:31;;;;;;;;;;;19.10;28.60;;;;;;489703;242;1087;-78
2022/01/31 00:25:33;;;;;;;;;;;19.20;28.50;;;;;;489684;242;1196;-78
2022/01/31 00:27:34;;;;;;;;;;;19.20;28.50;;;;;;489720;242;1154;-78
2022/01/31 00:29:35;;;;;;;;;;;19.20;28.50;;;;;;489732;242;933;-78
2022/01/31 00:31:37;;;;;;;;;;;19.20;28.50;;;;;;489704;242;1274;-78
2022/01/31 00:33:38;;;;;;;;;;;19.30;28.50;;;;;;489744;242;1137;-78
2022/01/31 00:35:39;;;;;;;;;;;19.20;28.50;;;;;;489717;242;2181;-78
2022/01/31 00:37:41;;;;;;;;;;;19.40;28.40;;;;;;489717;242;1194;-78
2022/01/31 00:39:42;;;;;;;;;;;19.50;28.30;;;;;;489742;242;957;-78
2022/01/31 00:41:43;;;;;;;;;;;19.50;28.20;;;;;;489714;242;1227;-78
2022/01/31 00:43:55;;;;;;;;;;;19.60;28.30;;;;;;489764;242;947;-79
2022/01/31 00:45:58;;;;;;;;;;;19.60;28.10;;;;;;490007;242;1263;-78
2022/01/31 00:47:58;;;;;;;;;;;19.80;28.10;;;;;;490029;242;1415;-78
2022/01/31 00:49:51;;;;;;;;;;;19.70;28.10;;;;;;490069;242;1453;-79
2022/01/31 00:51:51;;;;;;;;;;;19.70;28.10;;;;;;489727;242;1373;-79
2022/01/31 00:53:53;;;;;;;;;;;19.80;28.10;;;;;;489741;242;1303;-78
2022/01/31 00:55:54;;;;;;;;;;;19.80;28.00;;;;;;489689;242;2200;-78
2022/01/31 00:57:55;;;;;;;;;;;19.90;28.00;;;;;;489710;242;1041;-78
2022/01/31 00:59:57;;;;;;;;;;;20.10;27.90;;;;;;489730;242;945;-79
2022/01/31 01:01:58;;;;;;;;;;;20.00;27.80;;;;;;489599;242;1219;-78
2022/01/31 01:03:59;;;;;;;;;;;20.00;27.90;;;;;;489717;242;1173;-78
2022/01/31 01:06:01;;;;;;;;;;;20.00;27.80;;;;;;489722;242;958;-78
2022/01/31 01:08:03;;;;;;;;;;;20.10;27.70;;;;;;489769;242;1048;-79
2022/01/31 01:10:03;;;;;;;;;;;20.20;27.70;;;;;;489864;242;1205;-79
2022/01/31 01:12:05;;;;;;;;;;;20.20;27.80;;;;;;489770;242;1045;-78
2022/01/31 01:14:06;;;;;;;;;;;20.30;27.70;;;;;;489792;242;982;-79
2022/01/31 01:16:07;;;;;;;;;;;20.20;27.70;;;;;;489737;242;2188;-80
2022/01/31 01:18:09;;;;;;;;;;;20.30;27.70;;;;;;489756;242;1123;-79
2022/01/31 01:20:10;;;;;;;;;;;20.30;27.60;;;;;;489750;242;952;-79
2022/01/31 01:22:12;;;;;;;;;;;20.40;27.60;;;;;;489563;242;1276;-78
2022/01/31 01:24:14;;;;;;;;;;;20.30;27.60;;;;;;489793;242;940;-78
2022/01/31 01:26:14;;;;;;;;;;;20.40;27.50;;;;;;489752;242;1464;-78
2022/01/31 01:28:16;;;;;;;;;;;20.50;27.50;;;;;;489775;242;927;-79
2022/01/31 01:30:17;;;;;;;;;;;20.60;27.40;;;;;;489783;242;949;-78
2022/01/31 01:32:18;;;;;;;;;;;20.60;27.40;;;;;;489721;242;1149;-79
2022/01/31 01:34:21;;;;;;;;;;;20.60;27.40;;;;;;489774;242;1180;-78
2022/01/31 01:36:21;;;;;;;;;;;20.50;27.50;;;;;;489692;242;2181;-78
2022/01/31 01:38:28;;;;;;;;;;;20.40;27.60;;;;;;489753;242;1102;-78
2022/01/31 01:40:24;;;;;;;;;;;20.50;27.50;;;;;;489811;242;1334;-78
2022/01/31 01:42:26;;;;;;;;;;;20.70;27.40;;;;;;489794;242;1093;-78
2022/01/31 01:44:27;;;;;;;;;;;20.70;27.40;;;;;;489773;242;954;-79
2022/01/31 01:46:28;;;;;;;;;;;20.60;27.40;;;;;;489687;242;1108;-78
2022/01/31 01:48:30;;;;;;;;;;;20.60;27.50;;;;;;489680;242;1125;-78
2022/01/31 01:50:31;;;;;;;;;;;20.50;27.50;;;;;;489686;242;1022;-78
2022/01/31 01:52:32;;;;;;;;;;;20.70;27.40;;;;;;489760;242;1080;-78
2022/01/31 01:54:34;;;;;;;;;;;20.80;27.40;;;;;;489731;242;972;-78
2022/01/31 01:56:35;;;;;;;;;;;20.80;27.40;;;;;;489645;242;2138;-78
2022/01/31 01:58:40;;;;;;;;;;;20.80;27.40;;;;;;489739;242;984;-79
2022/01/31 02:00:50;;;;;;;;;;;20.80;27.40;;;;;;489861;242;1423;-78
2022/01/31 02:02:50;;;;;;;;;;;20.70;27.40;;;;;;489784;242;1476;-78
2022/01/31 02:04:51;;;;;;;;;;;20.60;27.40;;;;;;489707;242;1213;-78
2022/01/31 02:06:53;;;;;;;;;;;20.60;27.50;;;;;;489737;242;1159;-78
2022/01/31 02:08:55;;;;;;;;;;;20.60;27.50;;;;;;489704;242;1060;-78
2022/01/31 02:10:55;;;;;;;;;;;20.70;27.50;;;;;;489640;242;1303;-78
2022/01/31 02:12:57;;;;;;;;;;;20.90;27.40;;;;;;489644;242;1123;-78
2022/01/31 02:14:58;;;;;;;;;;;20.80;27.40;;;;;;489741;242;1044;-78
2022/01/31 02:16:59;;;;;;;;;;;20.90;27.30;;;;;;489770;242;2114;-78
2022/01/31 02:19:01;;;;;;;;;;;20.80;27.30;;;;;;489695;242;1553;-78
2022/01/31 02:21:02;;;;;;;;;;;20.70;27.50;;;;;;489640;242;1171;-79
2022/01/31 02:23:03;;;;;;;;;;;20.90;27.40;;;;;;489817;242;1202;-78
2022/01/31 02:25:05;;;;;;;;;;;20.80;27.40;;;;;;489720;242;968;-78
2022/01/31 02:27:06;;;;;;;;;;;20.80;27.40;;;;;;489674;242;1121;-78
2022/01/31 02:29:11;;;;;;;;;;;20.90;27.40;;;;;;489813;242;1077;-79
2022/01/31 02:31:09;;;;;;;;;;;20.90;27.40;;;;;;489778;242;1532;-78
2022/01/31 02:33:10;;;;;;;;;;;20.90;27.40;;;;;;489775;242;1117;-78
2022/01/31 02:35:12;;;;;;;;;;;21.00;27.30;;;;;;489724;242;1286;-78
2022/01/31 02:37:13;;;;;;;;;;;20.90;27.30;;;;;;489659;242;2182;-78
2022/01/31 02:39:14;;;;;;;;;;;20.80;27.40;;;;;;489737;242;945;-78
2022/01/31 02:41:16;;;;;;;;;;;21.00;27.40;;;;;;489635;242;1238;-79
2022/01/31 02:43:17;;;;;;;;;;;20.90;27.40;;;;;;489746;242;1083;-78
2022/01/31 02:45:18;;;;;;;;;;;21.00;27.30;;;;;;489662;242;1133;-78
2022/01/31 02:47:24;;;;;;;;;;;20.90;27.40;;;;;;489704;242;1049;-78
2022/01/31 02:49:24;;;;;;;;;;;20.80;27.50;;;;;;489828;242;1394;-78
2022/01/31 02:51:25;;;;;;;;;;;20.80;27.40;;;;;;489618;242;1497;-78
2022/01/31 02:53:25;;;;;;;;;;;21.00;27.30;;;;;;489835;242;1427;-79
2022/01/31 02:55:25;;;;;;;;;;;21.10;27.30;;;;;;489671;242;1392;-79
2022/01/31 02:57:26;;;;;;;;;;;21.00;27.30;;;;;;489740;242;2197;-78
2022/01/31 02:59:28;;;;;;;;;;;20.90;27.40;;;;;;489747;242;949;-78
2022/01/31 03:01:31;;;;;;;;;;;21.10;27.30;;;;;;489665;242;1144;-78
2022/01/31 03:03:30;;;;;;;;;;;21.00;27.40;;;;;;489767;242;1410;-78
2022/01/31 03:05:32;;;;;;;;;;;21.00;27.30;;;;;;489696;242;1221;-78
2022/01/31 03:07:34;;;;;;;;;;;21.10;27.30;;;;;;489767;242;1154;-78
2022/01/31 03:09:34;;;;;;;;;;;21.00;27.30;;;;;;489937;242;1401;-78
2022/01/31 03:11:36;;;;;;;;;;;21.10;27.30;;;;;;489713;242;1215;-78
2022/01/31 03:13:37;;;;;;;;;;;20.90;27.40;;;;;;489740;242;973;-78
2022/01/31 03:15:38;;;;;;;;;;;21.10;27.40;;;;;;489673;242;1224;-78
2022/01/31 03:17:43;;;;;;;;;;;21.00;27.30;;;;;;489768;242;2180;-78
2022/01/31 03:19:42;;;;;;;;;;;21.10;27.30;;;;;;489687;242;1328;-79
2022/01/31 03:21:43;;;;;;;;;;;21.00;27.30;;;;;;489803;242;1229;-79
2022/01/31 03:23:46;;;;;;;;;;;20.90;27.40;;;;;;489678;242;961;-78
2022/01/31 03:25:46;;;;;;;;;;;20.90;27.40;;;;;;489711;242;1579;-78
2022/01/31 03:27:47;;;;;;;;;;;21.00;27.40;;;;;;489792;242;1062;-78
2022/01/31 03:29:48;;;;;;;;;;;20.90;27.40;;;;;;489819;242;946;-79
2022/01/31 03:31:49;;;;;;;;;;;21.10;27.40;;;;;;489681;242;1055;-78
2022/01/31 03:33:51;;;;;;;;;;;21.00;27.40;;;;;;489738;242;1155;-78
2022/01/31 03:35:52;;;;;;;;;;;21.10;27.30;;;;;;489719;242;1177;-78
2022/01/31 03:37:53;;;;;;;;;;;21.10;27.40;;;;;;489762;242;2190;-79
2022/01/31 03:39:55;;;;;;;;;;;21.20;27.10;;;;;;489756;242;993;-78
2022/01/31 03:41:56;;;;;;;;;;;21.10;27.30;;;;;;489801;242;1245;-79
2022/01/31 03:43:57;;;;;;;;;;;21.10;27.30;;;;;;489895;242;1378;-79
2022/01/31 03:45:59;;;;;;;;;;;20.90;27.40;;;;;;489758;242;1153;-79
2022/01/31 03:48:00;;;;;;;;;;;21.00;27.40;;;;;;489857;242;1455;-78
2022/01/31 03:50:02;;;;;;;;;;;21.10;27.30;;;;;;489732;242;1083;-78
2022/01/31 03:52:03;;;;;;;;;;;21.10;27.30;;;;;;489669;242;1113;-78
2022/01/31 03:54:04;;;;;;;;;;;20.90;27.40;;;;;;489756;242;960;-78
2022/01/31 03:56:05;;;;;;;;;;;21.00;27.40;;;;;;489695;242;1188;-79
2022/01/31 03:58:07;;;;;;;;;;;21.00;27.40;;;;;;489698;242;2181;-78
2022/01/31 04:00:08;;;;;;;;;;;21.00;27.40;;;;;;489755;242;1221;-78
2022/01/31 04:02:09;;;;;;;;;;;20.90;27.40;;;;;;489817;242;1133;-79
2022/01/31 04:04:11;;;;;;;;;;;21.20;27.20;;;;;;489755;242;1105;-78
2022/01/31 04:06:12;;;;;;;;;;;21.00;27.30;;;;;;489689;242;1439;-79
2022/01/31 04:08:14;;;;;;;;;;;20.90;27.40;;;;;;489751;242;1113;-78
2022/01/31 04:10:15;;;;;;;;;;;21.00;27.50;;;;;;489782;242;1269;-78
2022/01/31 04:12:16;;;;;;;;;;;20.90;27.40;;;;;;489744;242;1090;-78
2022/01/31 04:14:17;;;;;;;;;;;20.80;27.50;;;;;;489774;242;1079;-78
2022/01/31 04:16:19;;;;;;;;;;;21.10;27.40;;;;;;489698;242;1260;-78
2022/01/31 04:18:20;;;;;;;;;;;20.90;27.40;;;;;;489722;242;2197;-78
2022/01/31 04:20:22;;;;;;;;;;;20.80;27.50;;;;;;489732;242;1263;-78
2022/01/31 04:22:25;;;;;;;;;;;21.00;27.50;;;;;;489726;242;1197;-78
2022/01/31 04:24:31;;;;;;;;;;;20.90;27.50;;;;;;489807;242;1320;-78
2022/01/31 04:26:32;;;;;;;;;;;21.00;27.40;;;;;;489801;242;1387;-79
2022/01/31 04:28:31;;;;;;;;;;;21.00;27.40;;;;;;489773;242;1436;-78
2022/01/31 04:30:28;;;;;;;;;;;21.00;27.50;;;;;;489798;242;1402;-78
2022/01/31 04:32:30;;;;;;;;;;;21.00;27.50;;;;;;489636;242;1120;-79
2022/01/31 04:34:31;;;;;;;;;;;21.00;27.50;;;;;;489737;242;984;-78
2022/01/31 04:36:32;;;;;;;;;;;21.10;27.20;;;;;;489631;242;1269;-78
2022/01/31 04:38:34;;;;;;;;;;;21.00;27.40;;;;;;489699;242;2185;-78
2022/01/31 04:40:35;;;;;;;;;;;21.00;27.50;;;;;;489681;242;1089;-78
2022/01/31 04:42:36;;;;;;;;;;;20.80;27.50;;;;;;489718;242;1111;-79
2022/01/31 04:44:38;;;;;;;;;;;20.80;27.50;;;;;;489716;242;1109;-78
2022/01/31 04:46:40;;;;;;;;;;;20.80;27.60;;;;;;489621;242;1080;-78
2022/01/31 04:48:43;;;;;;;;;;;20.80;27.70;;;;;;489908;242;1180;-78
2022/01/31 04:50:42;;;;;;;;;;;20.80;27.60;;;;;;489730;242;1450;-78
2022/01/31 04:52:43;;;;;;;;;;;20.80;27.60;;;;;;489799;242;1121;-79
2022/01/31 04:54:45;;;;;;;;;;;20.80;27.60;;;;;;489716;242;916;-79
2022/01/31 04:56:47;;;;;;;;;;;20.80;27.60;;;;;;489606;242;1148;-78
2022/01/31 04:58:47;;;;;;;;;;;20.80;27.60;;;;;;489692;242;2197;-79
2022/01/31 05:00:49;;;;;;;;;;;20.90;27.50;;;;;;489640;242;1143;-78
2022/01/31 05:02:50;;;;;;;;;;;20.70;27.60;;;;;;489636;242;1187;-78
2022/01/31 05:04:51;;;;;;;;;;;20.60;27.80;;;;;;489665;242;988;-78
2022/01/31 05:06:53;;;;;;;;;;;20.70;27.80;;;;;;489598;242;1267;-78
2022/01/31 05:08:54;;;;;;;;;;;20.70;27.70;;;;;;489744;242;937;-78
2022/01/31 05:10:55;;;;;;;;;;;20.60;27.70;;;;;;489799;242;961;-78
2022/01/31 05:12:57;;;;;;;;;;;20.60;27.80;;;;;;489778;242;1092;-78
2022/01/31 05:14:58;;;;;;;;;;;20.70;27.70;;;;;;489754;242;1231;-78
2022/01/31 05:16:59;;;;;;;;;;;20.70;27.70;;;;;;489632;242;1120;-78
2022/01/31 05:19:02;;;;;;;;;;;20.60;27.80;;;;;;489709;242;2173;-78
2022/01/31 05:21:04;;;;;;;;;;;20.70;27.80;;;;;;489537;242;1217;-78
2022/01/31 05:23:05;;;;;;;;;;;20.60;27.80;;;;;;489610;242;1494;-78
2022/01/31 05:25:06;;;;;;;;;;;20.60;27.90;;;;;;489747;242;950;-78
2022/01/31 05:27:07;;;;;;;;;;;20.50;27.90;;;;;;489674;242;1210;-78
2022/01/31 05:29:09;;;;;;;;;;;20.40;28.00;;;;;;489713;242;1038;-78
2022/01/31 05:31:10;;;;;;;;;;;20.40;28.10;;;;;;489639;242;1242;-78
2022/01/31 05:33:11;;;;;;;;;;;20.30;28.10;;;;;;489732;242;1202;-78
2022/01/31 05:35:13;;;;;;;;;;;20.40;28.10;;;;;;489660;242;963;-78
2022/01/31 05:37:14;;;;;;;;;;;20.40;28.10;;;;;;489523;242;1160;-78
2022/01/31 05:39:15;;;;;;;;;;;20.50;28.00;;;;;;489647;242;2126;-78
2022/01/31 05:41:19;;;;;;;;;;;20.50;28.00;;;;;;489595;242;1222;-78
2022/01/31 05:43:19;;;;;;;;;;;20.30;28.10;;;;;;489612;242;1410;-78
2022/01/31 05:45:20;;;;;;;;;;;20.30;28.20;;;;;;489624;242;1153;-77
2022/01/31 05:47:21;;;;;;;;;;;20.30;28.20;;;;;;489576;242;1125;-78
2022/01/31 05:49:23;;;;;;;;;;;20.30;28.20;;;;;;489592;242;942;-78
2022/01/31 05:51:24;;;;;;;;;;;20.40;28.20;;;;;;489524;242;1129;-78
2022/01/31 05:53:25;;;;;;;;;;;20.30;28.20;;;;;;489508;242;916;-78
2022/01/31 05:55:27;;;;;;;;;;;20.20;28.40;;;;;;489509;242;1246;-78
2022/01/31 05:57:28;;;;;;;;;;;20.30;28.40;;;;;;489486;242;2134;-78
2022/01/31 05:59:29;;;;;;;;;;;20.20;28.40;;;;;;489647;242;932;-78
2022/01/31 06:01:31;;;;;;;;;;;20.10;28.40;;;;;;489500;242;1170;-78
2022/01/31 06:03:32;;;;;;;;;;;20.20;28.50;;;;;;489722;242;1195;-78
2022/01/31 06:05:33;;;;;;;;;;;20.10;28.50;;;;;;489419;242;974;-78
2022/01/31 06:07:34;;;;;;;;;;;20.30;28.50;;;;;;489337;242;1177;-78
2022/01/31 06:09:37;;;;;;;;;;;20.40;28.30;;;;;;489504;242;959;-78
2022/01/31 06:11:37;;;;;;;;;;;20.10;28.50;;;;;;489521;242;1500;-78
2022/01/31 06:13:38;;;;;;;;;;;20.00;28.70;;;;;;489591;242;1108;-78
2022/01/31 06:15:40;;;;;;;;;;;19.80;28.80;;;;;;489416;242;1097;-78
2022/01/31 06:17:41;;;;;;;;;;;19.70;29.00;;;;;;489365;242;2189;-78
2022/01/31 06:19:42;;;;;;;;;;;19.60;29.00;;;;;;489474;242;1136;-78
2022/01/31 06:21:44;;;;;;;;;;;19.60;29.10;;;;;;489412;242;1168;-78
2022/01/31 06:23:45;;;;;;;;;;;19.60;29.20;;;;;;489483;242;1082;-78
2022/01/31 06:25:48;;;;;;;;;;;19.50;29.20;;;;;;489450;242;1177;-78
2022/01/31 06:27:48;;;;;;;;;;;19.40;29.30;;;;;;489679;242;1377;-78
2022/01/31 06:29:49;;;;;;;;;;;19.40;29.20;;;;;;489561;242;938;-78
2022/01/31 06:31:50;;;;;;;;;;;19.40;29.30;;;;;;489316;242;1126;-78
2022/01/31 06:33:52;;;;;;;;;;;19.30;29.40;;;;;;489413;242;1124;-78
2022/01/31 06:35:53;;;;;;;;;;;19.20;29.50;;;;;;489329;242;1101;-78
2022/01/31 06:37:54;;;;;;;;;;;19.20;29.50;;;;;;489378;242;2180;-78
2022/01/31 06:39:55;;;;;;;;;;;19.20;29.60;;;;;;489432;242;1088;-78
2022/01/31 06:41:57;;;;;;;;;;;19.20;29.60;;;;;;489468;242;1186;-78
2022/01/31 06:43:58;;;;;;;;;;;19.20;29.60;;;;;;489463;242;1076;-78
2022/01/31 06:45:59;;;;;;;;;;;19.20;29.70;;;;;;489404;242;1297;-78
2022/01/31 06:48:01;;;;;;;;;;;19.30;29.50;;;;;;489269;242;1107;-78
2022/01/31 06:50:04;;;;;;;;;;;19.30;29.50;;;;;;489344;242;1031;-78
2022/01/31 06:52:03;;;;;;;;;;;19.30;29.50;;;;;;489201;242;1312;-78
2022/01/31 06:54:06;;;;;;;;;;;19.30;29.50;;;;;;489296;242;956;-78
2022/01/31 06:56:06;;;;;;;;;;;19.30;29.50;;;;;;489281;242;1346;-78
2022/01/31 06:58:07;;;;;;;;;;;19.30;29.50;;;;;;489278;242;2115;-78
2022/01/31 07:00:09;;;;;;;;;;;19.30;29.50;;;;;;489284;242;999;-77
2022/01/31 07:02:10;;;;;;;;;;;19.30;29.40;;;;;;489252;242;1086;-78
2022/01/31 07:04:11;;;;;;;;;;;19.30;29.50;;;;;;489331;242;1025;-78
2022/01/31 07:06:13;;;;;;;;;;;19.20;29.50;;;;;;489148;242;1192;-78
2022/01/31 07:08:14;;;;;;;;;;;19.40;29.40;;;;;;489127;242;1202;-78
2022/01/31 07:10:15;;;;;;;;;;;19.40;29.40;;;;;;489196;242;1065;-78
2022/01/31 07:12:17;;;;;;;;;;;19.30;29.40;;;;;;489221;242;1103;-78
2022/01/31 07:14:30;;;;;;;;;;;19.30;29.40;;;;;;489123;242;1409;-78
2022/01/31 07:16:31;;;;;;;;;;;19.30;29.30;;;;;;489119;242;1422;-78
2022/01/31 07:18:34;;;;;;;;;;;19.30;29.30;;;;;;489192;242;2196;-78
2022/01/31 07:20:38;;;;;;;;;;;19.40;29.30;;;;;;489174;242;1395;-78
2022/01/31 07:22:38;;;;;;;;;;;19.30;29.20;;;;;;489044;242;1415;-78
2022/01/31 07:24:51;;;;;;;;;;;19.50;29.10;;;;;;489203;242;1295;-78
2022/01/31 07:26:49;;;;;;;;;;;19.50;29.00;;;;;;489209;242;1403;-78
2022/01/31 07:28:50;;;;;;;;;;;19.50;29.00;;;;;;489315;242;1201;-78
2022/01/31 07:30:51;;;;;;;;;;;19.40;28.90;;;;;;489088;242;1089;-78
2022/01/31 07:32:53;;;;;;;;;;;19.50;29.00;;;;;;489093;242;1024;-78
2022/01/31 07:34:55;;;;;;;;;;;19.40;29.00;;;;;;489208;242;1091;-78
2022/01/31 07:36:55;;;;;;;;;;;19.60;28.90;;;;;;489192;242;1403;-78
2022/01/31 07:38:57;;;;;;;;;;;19.60;28.80;;;;;;489276;242;2189;-78
2022/01/31 07:40:59;;;;;;;;;;;19.60;28.80;;;;;;489108;242;1167;-78
2022/01/31 07:42:59;;;;;;;;;;;19.70;28.80;;;;;;489102;242;1349;-78
2022/01/31 07:45:01;;;;;;;;;;;19.60;28.70;;;;;;489159;242;961;-78
2022/01/31 07:47:02;;;;;;;;;;;19.80;28.60;;;;;;489175;242;1120;-78
2022/01/31 07:49:03;;;;;;;;;;;19.90;28.70;;;;;;489164;242;1092;-78
2022/01/31 07:51:04;;;;;;;;;;;20.00;28.50;;;;;;488846;242;1238;-78
2022/01/31 07:53:06;;;;;;;;;;;20.00;28.40;;;;;;488899;242;1110;-78
2022/01/31 07:55:07;;;;;;;;;;;20.30;28.30;;;;;;489032;242;968;-78
2022/01/31 07:57:08;;;;;;;;;;;20.30;28.20;;;;;;489065;242;1079;-78
2022/01/31 07:59:10;;;;;;;;;;;20.50;28.10;;;;;;488819;242;2189;-78
2022/01/31 08:01:11;;;;;;;;;;;20.40;28.00;;;;;;488841;242;1252;-78
2022/01/31 08:03:12;;;;;;;;;;;20.80;27.90;;;;;;488753;242;1049;-78
2022/01/31 08:05:14;;;;;;;;;;;20.80;27.80;;;;;;488844;242;950;-78
2022/01/31 08:07:16;;;;;;;;;;;21.00;27.70;;;;;;488778;242;1123;-78
2022/01/31 08:09:16;;;;;;;;;;;21.00;27.60;;;;;;488728;242;1447;-77
2022/01/31 08:11:18;;;;;;;;;;;21.00;27.70;;;;;;488598;242;1167;-77
2022/01/31 08:13:19;;;;;;;;;;;21.10;27.60;;;;;;488749;242;1189;-78
2022/01/31 08:15:25;;;;;;;;;;;21.00;27.70;;;;;;488651;242;1344;-78
2022/01/31 08:17:22;;;;;;;;;;;21.30;27.50;;;;;;488755;242;1429;-78
2022/01/31 08:19:23;;;;;;;;;;;21.40;27.50;;;;;;488710;242;2177;-78
2022/01/31 08:21:25;;;;;;;;;;;21.40;27.40;;;;;;488823;242;1227;-78
2022/01/31 08:23:26;;;;;;;;;;;21.60;27.30;;;;;;488840;242;1166;-78
2022/01/31 08:25:28;;;;;;;;;;;21.60;27.20;;;;;;488867;242;1006;-78
2022/01/31 08:27:29;;;;;;;;;;;21.60;27.20;;;;;;488903;242;1425;-78
2022/01/31 08:29:32;;;;;;;;;;;21.80;27.30;;;;;;488927;242;987;-78
2022/01/31 08:31:34;;;;;;;;;;;21.70;27.20;;;;;;488943;242;1402;-78
2022/01/31 08:33:37;;;;;;;;;;;21.60;27.40;;;;;;488942;242;1456;-78
2022/01/31 08:35:48;;;;;;;;;;;21.50;27.50;;;;;;488961;242;1331;-78
2022/01/31 08:37:49;;;;;;;;;;;21.80;27.40;;;;;;489061;242;1159;-78
2022/01/31 08:39:51;;;;;;;;;;;21.90;27.30;;;;;;488890;242;2182;-62
2022/01/31 08:41:52;;;;;;;;;;;21.60;27.50;;;;;;488588;242;1178;-61
2022/01/31 08:43:53;;;;;;;;;;;20.40;28.40;;;;;;488693;242;1082;-62
2022/01/31 08:45:55;;;;;;;;;;;21.80;27.40;;;;;;488696;242;1361;-61
2022/01/31 08:47:56;;;;;;;;;;;22.60;26.70;;;;;;488743;242;1142;-61
2022/01/31 08:49:57;;;;;;;;;;;22.90;26.50;;;;;;488715;242;1097;-61
2022/01/31 08:51:59;;;;;;;;;;;23.10;26.30;;;;;;488844;242;1277;-61
2022/01/31 08:54:00;;;;;;;;;;;23.10;26.40;;;;;;488740;242;1302;-61
2022/01/31 08:56:01;;;;;;;;;;;23.10;26.50;;;;;;488685;242;1345;-61
2022/01/31 08:58:05;;;;;;;;;;;23.10;26.50;;;;;;488805;242;1042;-61
2022/01/31 09:00:06;;;;;;;;;;;23.10;26.60;;;;;;488861;242;2173;-61
2022/01/31 09:02:10;;;;;;;;;;;23.20;26.50;;;;;;488726;242;1386;-61
2022/01/31 09:04:09;;;;;;;;;;;23.10;26.60;;;;;;488787;242;2302;-64
2022/01/31 09:06:08;;;;;;;;;;;23.20;26.50;;;;;;488779;242;1822;-61
2022/01/31 09:08:09;;;;;;;;;;;23.30;26.60;;;;;;488893;242;1100;-63
2022/01/31 09:10:11;;;;;;;;;;;23.30;26.60;;;;;;488828;242;1117;-63
2022/01/31 09:12:15;;;;;;;;;;;23.20;26.70;;;;;;488760;242;1266;-62
2022/01/31 09:14:13;;;;;;;;;;;23.30;26.60;;;;;;488824;242;1362;-61
2022/01/31 09:16:14;;;;;;;;;;;23.30;26.70;;;;;;488603;242;1214;-62
2022/01/31 09:18:16;;;;;;;;;;;23.40;26.60;;;;;;488657;242;1019;-61
2022/01/31 09:20:17;;;;;;;;;;;23.30;26.70;;;;;;488576;242;2118;-61
2022/01/31 09:22:18;;;;;;;;;;;23.30;26.70;;;;;;488575;242;1239;-61
2022/01/31 09:24:20;;;;;;;;;;;23.30;26.80;;;;;;488659;242;1146;-61
2022/01/31 09:26:22;;;;;;;;;;;23.30;26.80;;;;;;488702;242;1216;-61
2022/01/31 09:28:23;;;;;;;;;;;23.30;26.80;;;;;;488572;242;1030;-61
2022/01/31 09:30:26;;;;;;;;;;;23.40;26.80;;;;;;488589;242;1246;-61
2022/01/31 09:32:25;;;;;;;;;;;23.40;26.80;;;;;;488318;242;2132;-61
2022/01/31 09:34:26;;;;;;;;;;;23.40;26.80;;;;;;488636;242;1079;-62
2022/01/31 09:36:28;;;;;;;;;;;23.30;27.00;;;;;;488715;242;1234;-61
2022/01/31 09:38:29;;;;;;;;;;;23.30;27.00;;;;;;489049;242;1282;-61
2022/01/31 09:40:31;;;;;;;;;;;23.30;27.00;;;;;;488767;242;2157;-61
2022/01/31 09:42:38;;;;;;;;;;;23.30;27.10;;;;;;488837;242;1195;-61
2022/01/31 09:44:43;;;;;;;;;;;23.30;27.10;;;;;;488941;242;2343;-61
2022/01/31 09:48:51;;;;;;;;;;;23.30;27.10;;;;;;488589;242;1168;-61
2022/01/31 09:50:50;;;;;;;;;;;23.30;27.20;;;;;;488828;242;2033;-61
2022/01/31 09:52:51;;;;;;;;;;;23.20;27.30;;;;;;488836;242;1060;-61
2022/01/31 09:54:52;;;;;;;;;;;23.30;27.20;;;;;;488883;242;1221;-61
2022/01/31 09:56:54;;;;;;;;;;;23.30;27.20;;;;;;488792;242;1377;-61
2022/01/31 09:58:55;;;;;;;;;;;23.20;27.20;;;;;;488837;242;2122;-61
2022/01/31 10:00:56;;;;;;;;;;;23.20;27.20;;;;;;488855;242;1216;-61
2022/01/31 10:02:58;;;;;;;;;;;23.30;27.20;;;;;;488771;242;1145;-61
2022/01/31 10:04:59;;;;;;;;;;;23.30;27.10;;;;;;488808;242;1068;-61
2022/01/31 10:07:00;;;;;;;;;;;23.30;27.20;;;;;;489074;242;1089;-61
2022/01/31 10:09:02;;;;;;;;;;;23.30;27.40;;;;;;489086;242;1199;-61
2022/01/31 10:11:11;;;;;;;;;;;23.30;27.40;;;;;;488733;241;1284;-61
2022/01/31 10:17:57;;;;;;;;;;;23.20;27.50;;;;;;485630;242;1225;-61
2022/01/31 10:20:00;;;;;;;;;;;23.20;27.40;;;;;;488750;242;2213;-61
2022/01/31 10:22:00;;;;;;;;;;;23.20;27.50;;;;;;488619;242;1624;-61
2022/01/31 10:24:01;;;;;;;;;;;23.20;27.50;;;;;;488780;242;1220;-61
2022/01/31 10:26:04;;;;;;;;;;;23.30;27.40;;;;;;488783;242;1319;-61
2022/01/31 10:28:04;;;;;;;;;;;23.30;27.40;;;;;;488837;242;2131;-61
2022/01/31 10:30:05;;;;;;;;;;;23.30;27.40;;;;;;488871;242;1030;-61
2022/01/31 10:32:07;;;;;;;;;;;23.30;27.40;;;;;;488642;242;1301;-61
2022/01/31 10:34:08;;;;;;;;;;;23.40;27.40;;;;;;488500;242;1122;-61
2022/01/31 10:36:09;;;;;;;;;;;23.40;27.40;;;;;;488581;242;1126;-61
2022/01/31 10:38:12;;;;;;;;;;;23.40;27.50;;;;;;488667;242;1322;-61
2022/01/31 10:45:20;;;;;;;;;;;23.30;27.50;;;;;;488837;241;1065;-61
2022/01/31 10:52:02;;;;;;;;;;;23.20;27.70;;;;;;486668;242;1189;-61
2022/01/31 10:54:05;;;;;;;;;;;23.20;27.70;;;;;;488961;242;1417;-61
2022/01/31 10:56:02;;;;;;;;;;;23.10;27.80;;;;;;488816;242;1416;-61
2022/01/31 10:58:03;;;;;;;;;;;23.30;27.70;;;;;;489528;242;958;-61
2022/01/31 11:00:04;;;;;;;;;;;23.30;27.80;;;;;;489183;242;2193;-61
2022/01/31 11:02:06;;;;;;;;;;;23.50;27.50;;;;;;488784;242;1117;-61
2022/01/31 11:04:07;;;;;;;;;;;23.70;27.40;;;;;;488903;242;1105;-61
2022/01/31 11:06:09;;;;;;;;;;;23.90;27.30;;;;;;488785;242;1231;-61
2022/01/31 11:08:10;;;;;;;;;;;24.10;27.10;;;;;;488951;242;1188;-61
2022/01/31 11:10:11;;;;;;;;;;;24.30;27.00;;;;;;488658;242;1128;-62
2022/01/31 11:12:12;;;;;;;;;;;24.30;27.00;;;;;;488859;242;1709;-61
2022/01/31 11:14:14;;;;;;;;;;;24.40;26.90;;;;;;488790;242;1205;-62
2022/01/31 11:16:15;;;;;;;;;;;24.20;27.10;;;;;;488713;242;1225;-62
2022/01/31 11:18:16;;;;;;;;;;;24.00;27.30;;;;;;488527;242;1117;-62
2022/01/31 11:20:18;;;;;;;;;;;24.10;27.30;;;;;;488820;242;2204;-61
2022/01/31 11:22:27;;;;;;;;;;;24.00;27.40;;;;;;488628;242;1170;-61
2022/01/31 11:24:20;;;;;;;;;;;23.90;27.40;;;;;;488810;242;1340;-61
2022/01/31 11:26:22;;;;;;;;;;;23.90;27.50;;;;;;488722;242;1673;-61
2022/01/31 11:28:23;;;;;;;;;;;23.70;27.70;;;;;;488811;242;1078;-61
2022/01/31 11:30:24;;;;;;;;;;;23.50;27.80;;;;;;488858;242;1086;-61
2022/01/31 11:32:26;;;;;;;;;;;22.60;28.80;;;;;;488838;242;1028;-62
2022/01/31 11:34:27;;;;;;;;;;;22.40;29.00;;;;;;488626;242;1083;-61
2022/01/31 11:36:28;;;;;;;;;;;22.20;29.10;;;;;;488814;242;1168;-61
2022/01/31 11:38:29;;;;;;;;;;;20.90;30.90;;;;;;488757;242;1224;-59
2022/01/31 11:40:31;;;;;;;;;;;21.60;29.80;;;;;;488707;242;2189;-61
2022/01/31 11:42:32;;;;;;;;;;;22.00;29.40;;;;;;488743;242;1173;-61
2022/01/31 11:44:33;;;;;;;;;;;22.30;29.00;;;;;;488736;242;1013;-61
2022/01/31 11:46:35;;;;;;;;;;;22.40;29.00;;;;;;488665;242;1176;-62
2022/01/31 11:48:38;;;;;;;;;;;22.60;28.80;;;;;;488692;242;1145;-61
2022/01/31 11:50:38;;;;;;;;;;;22.50;28.80;;;;;;488842;242;2009;-61
2022/01/31 11:52:39;;;;;;;;;;;22.50;28.80;;;;;;488855;242;1149;-62
2022/01/31 11:54:40;;;;;;;;;;;22.40;28.90;;;;;;488770;241;1135;-61
2022/01/31 11:56:42;;;;;;;;;;;22.40;28.90;;;;;;488770;242;1184;-61
2022/01/31 11:58:43;;;;;;;;;;;22.30;29.00;;;;;;488767;242;1019;-61
2022/01/31 12:00:45;;;;;;;;;;;22.20;29.00;;;;;;488765;242;2115;-61
2022/01/31 12:02:46;;;;;;;;;;;22.20;29.00;;;;;;488873;242;1697;-61
2022/01/31 12:04:49;;;;;;;;;;;22.20;28.90;;;;;;488808;242;1062;-61
2022/01/31 12:06:48;;;;;;;;;;;22.10;29.00;;;;;;488558;242;2058;-61
2022/01/31 12:08:50;;;;;;;;;;;22.20;29.00;;;;;;488553;242;1064;-61
2022/01/31 12:10:51;;;;;;;;;;;22.10;29.10;;;;;;488598;242;1304;-61
2022/01/31 12:12:56;;;;;;;;;;;22.10;29.20;;;;;;488762;242;1164;-61
2022/01/31 12:15:05;;;;;;;;;;;22.00;29.10;;;;;;488844;242;2090;-62